KAPF/APF METAR and TAF weather

Enter ICAO airport designator
Station Type Date Time Source
KAPF METAR 2021/06/24 05:53 UTC NOAA

KAPF 240553Z AUTO 07003KT 10SM CLR 23/22 A3009 RMK AO2 SLP187 T02330222 10244 20233 58008


Station Type Date Time Source
KAPF Decoded METAR 2021/06/24 05:53 UTC NOAA

NAPLES MUNICIPAL AIRPORT, FL, United States (KAPF) 26-09N 081-46W
Jun 24, 2021 - 01:53 AM EDT / 2021.06.24 0553 UTC
Wind: from the ENE (070 degrees) at 3 MPH (3 KT):0
Visibility: 10 mile(s):0
Sky conditions: clear
Temperature: 73.9 F (23.3 C)
Dew Point: 72.0 F (22.2 C)
Relative Humidity: 93%
Pressure (altimeter): 30.09 in. Hg (1018 hPa)
Pressure tendency: 0.02 inches (0.8 hPa) lower than three hours ago
ob: KAPF 240553Z AUTO 07003KT 10SM CLR 23/22 A3009 RMK AO2 SLP187 T02330222 10244 20233 58008
cycle: 6

Station Type Date Time Source
KAPF TAF 2021/06/24 06:30 UTC NOAA

TAF KAPF 240528Z 2406/2506 VRB05KT P6SM SCT030 SCT250
FM241600 08007KT P6SM VCTS SCT025CB BKN050
FM241900 17008KT P6SM VCTS SCT025CB BKN050
FM242300 08008KT P6SM VCSH SCT025 SCT050
FM250300 06005KT P6SM SCT030 BKN250

Example: see airport list